createdAt,value
2018-07-22T00:01:43.491Z,94.80
2018-07-22T00:04:11.193Z,94.80
2018-07-22T00:06:38.872Z,94.90
2018-07-22T00:09:09.415Z,94.80
2018-07-22T00:11:37.092Z,94.80
2018-07-22T00:14:05.006Z,94.90
2018-07-22T00:16:32.720Z,94.80
2018-07-22T00:19:00.418Z,94.80
2018-07-22T00:21:28.321Z,94.70
2018-07-22T00:23:56.078Z,94.90
2018-07-22T00:26:23.742Z,94.90
2018-07-22T00:28:51.559Z,95.20
2018-07-22T00:31:19.259Z,95.10
2018-07-22T00:33:46.916Z,95.60
2018-07-22T00:36:14.632Z,95.50
2018-07-22T00:38:42.372Z,95.50
2018-07-22T00:41:10.032Z,95.40
2018-07-22T00:43:37.804Z,95.30
2018-07-22T00:46:05.775Z,95.30
2018-07-22T00:48:33.461Z,95.30
2018-07-22T00:51:01.155Z,95.20
2018-07-22T00:53:28.835Z,95.20
2018-07-22T00:55:56.555Z,95.40
2018-07-22T00:58:24.345Z,95.50
2018-07-22T01:00:52.105Z,96.00
2018-07-22T01:03:19.828Z,96.50
2018-07-22T01:05:47.501Z,96.20
2018-07-22T01:08:15.211Z,96.60
2018-07-22T01:10:43.347Z,96.80
2018-07-22T01:13:11.018Z,97.10
2018-07-22T01:15:38.744Z,97.40
2018-07-22T01:18:06.490Z,97.40
2018-07-22T01:20:34.179Z,97.60
2018-07-22T01:23:01.861Z,97.70
2018-07-22T01:25:29.513Z,97.60
2018-07-22T01:27:57.299Z,95.00
2018-07-22T01:30:24.955Z,94.90
2018-07-22T01:32:52.755Z,95.00
2018-07-22T01:35:20.390Z,95.00
2018-07-22T01:37:48.088Z,95.10
2018-07-22T01:40:15.756Z,95.20
2018-07-22T01:42:43.536Z,95.20
2018-07-22T01:45:11.178Z,95.10
2018-07-22T01:47:39.023Z,95.10
2018-07-22T01:50:06.783Z,95.10
2018-07-22T01:52:34.541Z,95.00
2018-07-22T01:55:02.245Z,95.10
2018-07-22T01:57:29.897Z,95.60
2018-07-22T01:59:57.841Z,95.20
2018-07-22T02:02:25.629Z,95.30
2018-07-22T02:04:53.324Z,95.30
2018-07-22T02:07:21.014Z,95.20
2018-07-22T02:09:48.663Z,95.20
2018-07-22T02:12:16.370Z,95.20
2018-07-22T02:14:44.023Z,95.40
2018-07-22T02:17:11.819Z,95.30
2018-07-22T02:19:39.491Z,95.30
2018-07-22T02:22:07.216Z,95.20
2018-07-22T02:24:34.874Z,95.20
2018-07-22T02:27:02.555Z,95.20
2018-07-22T02:29:30.187Z,95.10
2018-07-22T02:31:57.812Z,95.20
2018-07-22T02:34:25.508Z,95.20
2018-07-22T02:36:53.212Z,95.20
2018-07-22T02:39:20.907Z,95.20
2018-07-22T02:41:48.529Z,95.20
2018-07-22T02:44:16.212Z,95.20
2018-07-22T02:46:43.866Z,95.20
2018-07-22T02:49:11.628Z,95.20
2018-07-22T02:51:39.328Z,95.20
2018-07-22T02:54:07.036Z,95.20
2018-07-22T02:56:34.691Z,95.00
2018-07-22T02:59:03.730Z,95.20
2018-07-22T03:01:32.812Z,95.10
2018-07-22T03:04:00.867Z,95.10
2018-07-22T03:06:28.507Z,95.10
2018-07-22T03:08:56.200Z,95.10
2018-07-22T03:11:23.847Z,95.10
2018-07-22T03:13:51.521Z,95.20
2018-07-22T03:16:19.235Z,95.10
2018-07-22T03:18:46.880Z,95.20
2018-07-22T03:21:14.632Z,95.20
2018-07-22T03:23:42.278Z,95.10
2018-07-22T03:26:10.053Z,95.10
2018-07-22T03:28:37.732Z,95.10
2018-07-22T03:31:05.406Z,95.10
2018-07-22T03:33:33.063Z,95.10
2018-07-22T03:36:00.763Z,95.10
2018-07-22T03:38:28.403Z,95.10
2018-07-22T03:40:56.217Z,95.20
2018-07-22T03:43:23.870Z,95.10
2018-07-22T03:45:51.551Z,95.10
2018-07-22T03:48:19.213Z,95.10
2018-07-22T03:50:47.021Z,95.10
2018-07-22T03:53:14.676Z,95.10
2018-07-22T03:55:42.381Z,95.10
2018-07-22T03:58:10.163Z,95.00
2018-07-22T04:00:37.840Z,95.10
2018-07-22T04:03:05.800Z,95.10
2018-07-22T04:05:33.463Z,95.10
2018-07-22T04:08:01.221Z,95.10
2018-07-22T04:10:28.852Z,95.10
2018-07-22T04:12:56.695Z,95.20
2018-07-22T04:15:24.648Z,95.20
2018-07-22T04:17:52.359Z,95.20
2018-07-22T04:20:20.003Z,95.30
2018-07-22T04:22:47.743Z,95.30
2018-07-22T04:25:15.395Z,95.30
2018-07-22T04:27:43.151Z,95.40
2018-07-22T04:30:10.808Z,95.50
2018-07-22T04:32:38.502Z,95.60
2018-07-22T04:35:06.171Z,95.90
2018-07-22T04:37:33.999Z,95.90
2018-07-22T04:40:01.683Z,95.90
2018-07-22T04:42:29.336Z,96.10
2018-07-22T04:44:57.140Z,96.00
2018-07-22T04:47:24.798Z,96.10
2018-07-22T04:49:52.466Z,96.50
2018-07-22T04:52:20.117Z,96.10
2018-07-22T04:54:47.852Z,96.40
2018-07-22T04:57:15.514Z,96.70
2018-07-22T04:59:43.192Z,96.70
2018-07-22T05:02:11.254Z,96.70
2018-07-22T05:04:38.904Z,96.70
2018-07-22T05:07:06.618Z,96.80
2018-07-22T05:09:34.378Z,96.90
2018-07-22T05:12:02.280Z,96.90
2018-07-22T05:14:29.928Z,96.90
2018-07-22T05:16:57.747Z,97.00
2018-07-22T05:19:25.403Z,97.00
2018-07-22T05:21:53.064Z,97.30
2018-07-22T05:24:20.731Z,97.40
2018-07-22T05:26:48.527Z,97.50
2018-07-22T05:29:16.141Z,97.60
2018-07-22T05:31:43.951Z,97.60
2018-07-22T05:34:11.618Z,97.80
2018-07-22T05:36:39.304Z,97.70
2018-07-22T05:39:08.737Z,97.90
2018-07-22T05:41:36.418Z,97.80
2018-07-22T05:44:04.255Z,97.80
2018-07-22T05:46:31.890Z,98.20
2018-07-22T05:48:59.709Z,98.90
2018-07-22T05:51:27.375Z,99.40
2018-07-22T05:53:55.143Z,99.90
2018-07-22T05:56:22.806Z,99.20
2018-07-22T05:58:50.647Z,99.90
2018-07-22T06:01:18.335Z,99.90
2018-07-22T06:03:46.111Z,96.20
2018-07-22T06:06:13.900Z,96.20
2018-07-22T06:11:09.111Z,95.40
2018-07-22T06:13:36.826Z,95.60
2018-07-22T06:16:04.536Z,95.60
2018-07-22T06:18:32.381Z,95.50
2018-07-22T06:21:00.039Z,95.30
2018-07-22T06:23:27.796Z,95.20
2018-07-22T06:25:55.477Z,94.70
2018-07-22T06:28:23.166Z,95.00
2018-07-22T06:30:50.952Z,95.00
2018-07-22T06:33:18.606Z,94.90
2018-07-22T06:35:46.336Z,95.10
2018-07-22T06:38:14.015Z,95.10
2018-07-22T06:40:41.695Z,94.90
2018-07-22T06:43:09.647Z,94.80
2018-07-22T06:45:37.369Z,94.70
2018-07-22T06:48:05.125Z,94.70
2018-07-22T06:50:32.818Z,94.70
2018-07-22T06:53:00.497Z,95.00
2018-07-22T06:55:28.223Z,94.90
2018-07-22T06:57:56.006Z,94.90
2018-07-22T07:00:23.954Z,94.80
2018-07-22T07:02:51.668Z,95.10
2018-07-22T07:05:19.445Z,94.90
2018-07-22T07:07:47.154Z,95.00
2018-07-22T07:10:14.833Z,96.30
2018-07-22T07:12:42.551Z,94.80
2018-07-22T07:15:10.306Z,95.30
2018-07-22T07:17:38.114Z,95.40
2018-07-22T07:20:05.832Z,95.30
2018-07-22T07:22:33.555Z,95.90
2018-07-22T07:25:01.318Z,95.10
2018-07-22T07:27:28.998Z,95.90
2018-07-22T07:29:56.696Z,97.10
2018-07-22T07:32:24.522Z,95.90
2018-07-22T07:34:52.181Z,96.90
2018-07-22T07:37:19.860Z,97.20
2018-07-22T07:39:47.545Z,97.50
2018-07-22T07:42:15.290Z,97.90
2018-07-22T07:44:43.008Z,95.70
2018-07-22T07:47:10.684Z,96.10
2018-07-22T07:49:38.512Z,96.00
2018-07-22T07:52:06.196Z,95.80
2018-07-22T07:54:33.963Z,95.60
2018-07-22T07:57:01.644Z,95.80
2018-07-22T07:59:29.482Z,95.90
2018-07-22T08:01:57.178Z,95.80
2018-07-22T08:04:25.014Z,95.50
2018-07-22T08:06:52.664Z,96.30
2018-07-22T08:09:20.401Z,95.40
2018-07-22T08:11:48.165Z,95.80
2018-07-22T08:14:15.881Z,95.20
2018-07-22T08:16:43.592Z,95.40
2018-07-22T08:19:11.352Z,95.40
2018-07-22T08:21:39.220Z,95.20
2018-07-22T08:24:06.892Z,94.60
2018-07-22T08:26:34.654Z,94.10
2018-07-22T08:29:28.671Z,93.80
2018-07-22T08:31:56.645Z,94.90
2018-07-22T08:34:24.330Z,95.00
2018-07-22T08:36:52.116Z,95.40
2018-07-22T08:39:21.976Z,94.00
2018-07-22T08:41:50.560Z,94.30
2018-07-22T08:44:18.268Z,94.60
2018-07-22T08:46:45.996Z,94.30
2018-07-22T08:49:13.685Z,93.70
2018-07-22T08:51:41.368Z,93.20
2018-07-22T08:54:09.150Z,91.70
2018-07-22T08:56:36.876Z,92.70
2018-07-22T08:59:05.189Z,92.20
2018-07-22T09:01:34.159Z,92.40
2018-07-22T09:04:01.964Z,92.90
2018-07-22T09:06:29.933Z,92.80
2018-07-22T09:08:57.748Z,92.10
2018-07-22T09:11:25.712Z,92.90
2018-07-22T09:13:54.085Z,91.70
2018-07-22T09:16:21.795Z,92.30
2018-07-22T09:18:49.533Z,92.20
2018-07-22T09:21:17.279Z,91.20
2018-07-22T09:23:44.989Z,91.20
2018-07-22T09:26:12.706Z,90.90
2018-07-22T09:28:40.401Z,90.20
2018-07-22T09:31:08.236Z,90.30
2018-07-22T09:33:36.091Z,90.60
2018-07-22T09:36:03.955Z,90.30
2018-07-22T09:38:31.574Z,90.00
2018-07-22T09:40:59.312Z,90.00
2018-07-22T09:43:27.564Z,92.40
2018-07-22T09:45:55.505Z,91.20
2018-07-22T09:48:23.406Z,86.10
2018-07-22T09:50:51.160Z,86.00
2018-07-22T09:53:19.247Z,84.80
2018-07-22T09:55:47.454Z,86.90
2018-07-22T09:58:15.172Z,88.30
2018-07-22T10:00:48.615Z,82.90
2018-07-22T10:03:16.507Z,86.30
2018-07-22T10:05:44.200Z,83.80
2018-07-22T10:08:11.904Z,82.90
2018-07-22T10:10:39.649Z,80.80
2018-07-22T10:13:07.876Z,81.20
2018-07-22T10:15:35.623Z,85.40
2018-07-22T10:18:03.355Z,81.80
2018-07-22T10:20:31.270Z,84.50
2018-07-22T10:22:59.024Z,84.50
2018-07-22T10:25:26.738Z,82.40
2018-07-22T10:27:54.578Z,82.20
2018-07-22T10:30:22.319Z,79.20
2018-07-22T10:32:50.191Z,82.60
2018-07-22T10:35:17.984Z,80.40
2018-07-22T10:37:45.713Z,80.30
2018-07-22T10:40:14.186Z,79.30
2018-07-22T10:42:41.962Z,80.00
2018-07-22T10:45:09.680Z,77.70
2018-07-22T10:47:37.967Z,78.40
2018-07-22T10:50:05.838Z,81.60
2018-07-22T10:52:33.589Z,78.80
2018-07-22T10:55:01.300Z,79.20
2018-07-22T10:57:29.056Z,78.40
2018-07-22T10:59:56.773Z,80.50
2018-07-22T11:02:24.730Z,80.70
2018-07-22T11:04:52.604Z,79.70
2018-07-22T11:07:20.930Z,79.70
2018-07-22T11:09:48.640Z,78.90
2018-07-22T11:12:16.323Z,79.20
2018-07-22T11:14:44.124Z,80.40
2018-07-22T11:17:11.895Z,80.70
2018-07-22T11:19:39.578Z,80.70
2018-07-22T11:22:07.715Z,79.00
2018-07-22T11:24:35.437Z,81.00
2018-07-22T11:27:03.184Z,78.10
2018-07-22T11:29:30.887Z,78.40
2018-07-22T11:31:58.755Z,79.00
2018-07-22T11:34:26.414Z,77.70
2018-07-22T11:36:54.196Z,78.30
2018-07-22T11:39:21.868Z,80.30
2018-07-22T11:41:49.610Z,80.00
2018-07-22T11:44:17.308Z,80.00
2018-07-22T11:46:45.012Z,82.40
2018-07-22T11:49:12.828Z,80.00
2018-07-22T11:51:40.595Z,80.70
2018-07-22T13:21:45.159Z,80.10
2018-07-22T13:24:15.203Z,93.20
2018-07-22T13:26:43.011Z,91.90
2018-07-22T13:29:10.708Z,92.50
2018-07-22T13:31:38.607Z,94.50
2018-07-22T13:34:08.338Z,95.60
2018-07-22T13:36:36.080Z,96.00
2018-07-22T13:39:07.708Z,95.60
2018-07-22T13:41:38.015Z,96.10
2018-07-22T13:44:07.859Z,96.30
2018-07-22T13:46:36.089Z,95.70
2018-07-22T13:49:06.879Z,95.90
2018-07-22T13:51:34.828Z,96.50
2018-07-22T13:54:10.932Z,96.50
2018-07-22T13:56:38.789Z,96.90
2018-07-22T14:01:55.090Z,98.40
2018-07-22T14:04:23.827Z,97.70
2018-07-22T14:06:51.562Z,98.30
2018-07-22T14:09:19.351Z,97.60
2018-07-22T14:11:47.105Z,98.10
2018-07-22T14:14:14.871Z,98.40
2018-07-22T14:16:42.739Z,98.40
2018-07-22T14:19:10.668Z,98.60
2018-07-22T14:21:38.490Z,98.50
2018-07-22T14:24:06.204Z,98.10
2018-07-22T14:26:33.925Z,97.70
2018-07-22T14:29:01.638Z,97.70
2018-07-22T14:31:30.009Z,97.40
2018-07-22T14:33:57.684Z,97.30
2018-07-22T14:36:25.532Z,97.20
2018-07-22T14:38:53.226Z,97.30
2018-07-22T14:41:21.044Z,97.10
2018-07-22T14:43:48.745Z,97.20
2018-07-22T14:46:16.508Z,97.30
2018-07-22T14:48:45.121Z,97.10
2018-07-22T14:51:13.770Z,96.80
2018-07-22T14:53:41.550Z,96.60
2018-07-22T14:56:09.333Z,96.50
2018-07-22T14:58:37.224Z,96.20
2018-07-22T15:01:04.975Z,96.40
2018-07-22T15:03:32.851Z,96.70
2018-07-22T15:06:00.603Z,96.80
2018-07-22T15:08:28.366Z,96.90
2018-07-22T15:10:56.313Z,97.00
2018-07-22T15:13:24.099Z,97.10
2018-07-22T15:15:51.866Z,97.00
2018-07-22T15:18:19.675Z,97.00
2018-07-22T15:20:47.546Z,96.90
2018-07-22T15:23:15.280Z,96.60
2018-07-22T15:25:42.979Z,96.60
2018-07-22T15:28:10.675Z,96.50
2018-07-22T15:30:38.522Z,96.40
2018-07-22T15:33:06.364Z,95.90
2018-07-22T15:35:34.136Z,96.30
2018-07-22T15:38:01.871Z,96.20
2018-07-22T15:40:29.599Z,96.10
2018-07-22T15:42:57.330Z,96.00
2018-07-22T15:45:24.996Z,96.00
2018-07-22T15:47:52.879Z,95.80
2018-07-22T15:50:20.672Z,95.50
2018-07-22T15:52:48.542Z,95.40
2018-07-22T15:55:16.381Z,95.70
2018-07-22T15:57:44.183Z,95.90
2018-07-22T16:00:12.097Z,96.10
2018-07-22T16:02:39.911Z,96.30
2018-07-22T16:05:07.676Z,96.00
2018-07-22T16:07:35.764Z,96.20
2018-07-22T16:10:03.489Z,96.60
2018-07-22T16:12:31.206Z,96.90
2018-07-22T16:14:59.049Z,97.70
2018-07-22T16:17:26.952Z,97.90
2018-07-22T16:19:54.624Z,98.00
2018-07-22T16:22:22.436Z,97.80
2018-07-22T16:24:50.232Z,98.20
2018-07-22T16:27:17.957Z,98.10
2018-07-22T16:29:45.764Z,97.90
2018-07-22T16:32:13.602Z,97.80
2018-07-22T16:34:41.404Z,98.30
2018-07-22T16:37:09.132Z,98.20
2018-07-22T16:39:36.870Z,98.20
2018-07-22T16:42:04.637Z,98.40
2018-07-22T16:44:32.396Z,98.10
2018-07-22T16:47:00.151Z,98.30
2018-07-22T16:49:27.904Z,98.00
2018-07-22T16:51:55.602Z,97.50
2018-07-22T16:54:23.393Z,97.70
2018-07-22T16:56:51.077Z,97.80
2018-07-22T16:59:18.992Z,98.10
2018-07-22T17:01:46.682Z,98.10
2018-07-22T17:04:14.442Z,98.60
2018-07-22T17:06:42.234Z,99.00
2018-07-22T17:09:10.871Z,99.20
2018-07-22T17:11:38.691Z,99.70
2018-07-22T17:14:06.406Z,99.50
2018-07-22T17:16:34.127Z,99.40
2018-07-22T17:19:01.897Z,99.80
2018-07-22T17:21:29.651Z,99.90
2018-07-22T17:23:57.469Z,99.90
2018-07-22T17:26:25.173Z,99.90
2018-07-22T17:28:52.901Z,99.90
2018-07-22T17:31:20.658Z,99.90
2018-07-22T17:33:48.391Z,99.90
2018-07-22T17:36:16.256Z,99.70
2018-07-22T17:38:43.972Z,99.50
2018-07-22T17:41:11.791Z,99.20
2018-07-22T17:43:39.521Z,99.10
2018-07-22T17:46:07.291Z,99.00
2018-07-22T17:48:35.027Z,98.90
2018-07-22T17:51:02.818Z,98.70
2018-07-22T17:53:30.638Z,98.70
2018-07-22T17:55:58.432Z,99.00
2018-07-22T17:58:26.232Z,99.10
2018-07-22T18:00:53.918Z,98.90
2018-07-22T18:03:25.741Z,98.80
2018-07-22T18:05:53.415Z,98.60
2018-07-22T18:08:21.441Z,98.70
2018-07-22T18:10:50.103Z,98.70
2018-07-22T18:13:18.053Z,98.60
2018-07-22T18:15:45.809Z,98.40
2018-07-22T18:18:14.152Z,98.60
2018-07-22T18:20:42.809Z,98.70
2018-07-22T18:23:10.580Z,98.40
2018-07-22T18:25:38.336Z,98.40
2018-07-22T18:28:06.052Z,98.70
2018-07-22T18:30:33.953Z,98.80
2018-07-22T18:33:02.388Z,98.60
2018-07-22T18:35:30.237Z,98.70
2018-07-22T18:37:58.014Z,98.90
2018-07-22T18:40:26.262Z,98.60
2018-07-22T18:42:55.247Z,98.90
2018-07-22T18:45:23.498Z,99.00
2018-07-22T18:47:51.532Z,99.10
2018-07-22T18:50:20.222Z,99.30
2018-07-22T18:52:48.552Z,98.90
2018-07-22T18:55:16.824Z,99.30
2018-07-22T18:57:45.086Z,99.40
2018-07-22T19:00:13.286Z,99.50
2018-07-22T19:02:41.457Z,99.00
2018-07-22T19:05:09.627Z,98.70
2018-07-22T19:07:37.846Z,98.40
2018-07-22T19:10:06.516Z,98.10
2018-07-22T19:12:34.555Z,98.00
2018-07-22T19:15:02.655Z,97.90
2018-07-22T19:17:30.860Z,97.70
2018-07-22T19:19:58.982Z,97.50
2018-07-22T19:22:27.056Z,97.20
2018-07-22T19:24:55.102Z,97.30
2018-07-22T19:27:23.267Z,97.20
2018-07-22T19:29:51.321Z,97.20
2018-07-22T19:32:19.364Z,97.50
2018-07-22T19:34:47.400Z,97.00
2018-07-22T19:37:15.460Z,97.10
2018-07-22T19:39:43.451Z,97.10
2018-07-22T19:42:11.713Z,97.10
2018-07-22T19:44:39.772Z,97.00
2018-07-22T19:47:07.797Z,97.00
2018-07-22T19:49:35.891Z,96.80
2018-07-22T19:52:03.966Z,96.80
2018-07-22T19:54:31.986Z,96.80
2018-07-22T19:57:00.090Z,97.00
2018-07-22T19:59:28.263Z,96.70
2018-07-22T20:01:56.460Z,96.70
2018-07-22T20:04:24.550Z,96.60
2018-07-22T20:06:52.576Z,96.60
2018-07-22T20:09:20.675Z,96.70
2018-07-22T20:11:48.777Z,96.60
2018-07-22T20:14:17.959Z,96.60
2018-07-22T20:16:46.238Z,96.60
2018-07-22T20:19:14.353Z,96.60
2018-07-22T20:21:42.362Z,96.60
2018-07-22T20:24:10.446Z,96.80
2018-07-22T20:26:38.549Z,96.80
2018-07-22T20:29:06.472Z,96.90
2018-07-22T20:31:34.184Z,97.00
2018-07-22T20:34:01.876Z,97.30
2018-07-22T20:36:29.901Z,97.10
2018-07-22T20:38:57.669Z,97.20
2018-07-22T20:41:25.380Z,97.30
2018-07-22T20:43:53.219Z,97.30
2018-07-22T20:46:20.974Z,97.20
2018-07-22T20:48:48.676Z,97.20
2018-07-22T20:51:16.485Z,97.20
2018-07-22T20:53:44.131Z,97.10
2018-07-22T20:56:11.865Z,97.20
2018-07-22T20:58:39.695Z,97.10
2018-07-22T21:01:07.515Z,96.90
2018-07-22T21:03:35.253Z,96.90
2018-07-22T21:06:02.979Z,97.00
2018-07-22T21:08:30.832Z,96.90
2018-07-22T21:10:58.603Z,97.00
2018-07-22T21:13:26.996Z,97.20
2018-07-22T21:15:55.085Z,97.20
2018-07-22T21:18:22.918Z,97.20
2018-07-22T21:20:50.642Z,97.20
2018-07-22T21:23:18.319Z,97.30
2018-07-22T21:25:45.978Z,97.20
2018-07-22T21:28:13.788Z,97.20
2018-07-22T21:30:41.454Z,97.30
2018-07-22T21:33:09.270Z,97.30
2018-07-22T21:35:36.961Z,97.30
2018-07-22T21:38:04.844Z,97.20
2018-07-22T21:40:32.499Z,97.10
2018-07-22T21:43:00.322Z,97.50
2018-07-22T21:45:28.040Z,97.40
2018-07-22T21:47:55.873Z,97.40
2018-07-22T21:50:23.539Z,97.30
2018-07-22T21:52:51.248Z,97.30
2018-07-22T21:55:18.919Z,97.50
2018-07-22T21:57:46.821Z,97.40
2018-07-22T22:00:21.783Z,97.30
2018-07-22T22:02:49.663Z,97.10
2018-07-22T22:05:17.366Z,97.00
2018-07-22T22:07:45.080Z,96.90
2018-07-22T22:10:12.821Z,96.80
2018-07-22T22:12:40.528Z,96.80
2018-07-22T22:15:24.955Z,96.60
2018-07-22T22:17:53.836Z,96.60
2018-07-22T22:20:21.511Z,96.40
2018-07-22T22:22:49.160Z,96.40
2018-07-22T22:25:17.140Z,96.40
2018-07-22T22:27:44.946Z,96.30
2018-07-22T22:30:14.225Z,96.30
2018-07-22T22:32:42.297Z,96.40
2018-07-22T22:35:10.028Z,96.40
2018-07-22T22:37:37.844Z,96.40
2018-07-22T22:40:05.555Z,96.40
2018-07-22T22:42:33.238Z,96.30
2018-07-22T22:45:01.040Z,96.30
2018-07-22T22:47:28.743Z,96.40
2018-07-22T22:49:56.555Z,96.70
2018-07-22T22:52:24.271Z,96.90
2018-07-22T22:54:51.978Z,96.90
2018-07-22T22:57:19.711Z,96.90
2018-07-22T22:59:47.414Z,96.80
2018-07-22T23:02:15.232Z,96.90
2018-07-22T23:04:42.926Z,97.00
2018-07-22T23:07:10.711Z,96.90
2018-07-22T23:09:38.352Z,96.90
2018-07-22T23:12:06.047Z,96.90
2018-07-22T23:14:33.698Z,96.80
2018-07-22T23:17:01.367Z,96.80
2018-07-22T23:19:29.002Z,96.70
2018-07-22T23:21:56.790Z,96.70
2018-07-22T23:24:24.448Z,96.60
2018-07-22T23:26:52.123Z,96.60
2018-07-22T23:29:19.775Z,96.50
2018-07-22T23:31:47.437Z,96.50
2018-07-22T23:34:15.119Z,96.60
2018-07-22T23:36:42.881Z,96.60
2018-07-22T23:39:10.563Z,96.60
2018-07-22T23:41:38.208Z,96.70
2018-07-22T23:44:06.037Z,96.80
2018-07-22T23:46:33.740Z,97.10
2018-07-22T23:49:01.407Z,97.10
2018-07-22T23:51:29.064Z,97.10
2018-07-22T23:53:56.844Z,97.00
2018-07-22T23:56:24.593Z,97.00
2018-07-22T23:58:52.351Z,96.90
